METAR Data
IDs: Format: Raw Decoded Include TAF

Data at: 0658 UTC 27 Feb 2020

METAR for:TIST (St Thomas/King Arpt, --, VI)
Text:TIST 270653Z AUTO VRB04KT 10SM CLR 23/18 A2999 RMK AO2 SLP156 T02330183
Temperature: 23.3°C ( 74°F)
Dewpoint: 18.3°C ( 65°F) [RH = 74%]
Pressure (altimeter):29.99 inches Hg (1015.7 mb) [Sea level pressure: 1015.6 mb]
Winds:variable direction winds at 5 MPH (4 knots; 2.1 m/s)
Visibility:10 or more sm (16+ km)
Ceiling:at least 12,000 feet AGL
Clouds:sky clear below 12,000 feet AGL
QC Flag:automated observation with no human augmentation